Time;durP1;ratioP1;P1;durP2;ratioP2;P2;SDS_P1;SDS_P2;PMS_P1;PMS_P2;Temp;Humidity;BMP_temperature;BMP_pressure;BME280_temperature;BME280_humidity;BME280_pressure;Samples;Min_cycle;Max_cycle;Signal;HPM_P1;HPM_P2
2021/12/03 00:00:48;;;;;;;;;17.67;15.00;;;;;3.68;100.00;101156.97;4906485;29;44757;-88
2021/12/03 00:03:14;;;;;;;;;14.50;13.00;;;;;3.67;100.00;101155.25;4902058;29;45235;-88
2021/12/03 00:05:40;;;;;;;;;12.67;12.67;;;;;3.62;100.00;101159.78;4921346;29;45035;-87
2021/12/03 00:08:08;;;;;;;;;10.67;10.67;;;;;3.56;100.00;101145.06;4920607;29;44886;-84
2021/12/03 00:10:35;;;;;;;;;15.33;14.67;;;;;3.61;100.00;101153.66;4910019;29;45483;-83
2021/12/03 00:13:03;;;;;;;;;13.67;13.67;;;;;3.63;100.00;101147.50;4902716;29;47049;-84
2021/12/03 00:15:29;;;;;;;;;14.00;13.00;;;;;3.60;100.00;101149.34;4907185;29;44810;-83
2021/12/03 00:17:55;;;;;;;;;14.33;13.00;;;;;3.62;100.00;101154.53;4888557;29;45229;-84
2021/12/03 00:20:24;;;;;;;;;14.33;13.33;;;;;3.58;100.00;101158.19;4902632;29;44810;-84
2021/12/03 00:22:54;;;;;;;;;14.00;13.33;;;;;3.56;100.00;101149.47;4904777;29;45293;-88
2021/12/03 00:25:20;;;;;;;;;14.67;13.33;;;;;3.49;100.00;101148.81;4908426;29;44668;-88
2021/12/03 00:27:45;;;;;;;;;9.00;8.00;;;;;3.50;100.00;101155.78;4911813;29;44704;-88
2021/12/03 00:30:12;;;;;;;;;13.00;12.00;;;;;3.54;100.00;101151.31;4905132;29;45430;-83
2021/12/03 00:32:39;;;;;;;;;15.33;13.00;;;;;3.57;100.00;101159.94;4904192;29;45404;-83
2021/12/03 00:35:05;;;;;;;;;13.67;11.67;;;;;3.56;100.00;101154.72;4901884;29;44860;-84
2021/12/03 00:37:31;;;;;;;;;15.33;13.67;;;;;3.54;100.00;101156.56;4901100;29;44831;-84
2021/12/03 00:39:56;;;;;;;;;14.00;13.33;;;;;3.55;100.00;101156.50;4901805;29;45365;-84
2021/12/03 00:42:22;;;;;;;;;13.00;10.33;;;;;3.55;100.00;101153.00;4901353;29;45082;-84
2021/12/03 00:44:53;;;;;;;;;17.33;13.00;;;;;3.57;100.00;101162.56;4901021;29;45245;-84
2021/12/03 00:47:19;;;;;;;;;12.00;9.00;;;;;3.58;100.00;101155.56;4903102;29;45294;-84
2021/12/03 00:49:44;;;;;;;;;14.67;13.00;;;;;3.55;100.00;101156.50;4900678;29;45241;-83
2021/12/03 00:52:10;;;;;;;;;19.67;13.67;;;;;3.56;100.00;101168.72;4899924;29;45175;-83
2021/12/03 00:54:35;;;;;;;;;12.67;11.67;;;;;3.53;100.00;101162.69;4883308;29;44916;-83
2021/12/03 00:57:02;;;;;;;;;17.67;13.67;;;;;3.54;100.00;101162.66;4901780;29;45402;-83
2021/12/03 00:59:27;;;;;;;;;12.00;12.00;;;;;3.55;100.00;101182.75;4906757;29;44940;-83
2021/12/03 01:01:53;;;;;;;;;12.67;10.67;;;;;3.55;100.00;101176.66;4907172;29;45600;-83
2021/12/03 01:04:18;;;;;;;;;12.33;12.33;;;;;3.53;100.00;101171.47;4906341;29;45331;-83
2021/12/03 01:06:44;;;;;;;;;18.33;14.00;;;;;3.56;100.00;101181.00;4903866;29;44775;-83
2021/12/03 01:09:09;;;;;;;;;14.00;13.67;;;;;3.55;100.00;101182.75;4903240;29;44786;-82
2021/12/03 01:11:35;;;;;;;;;19.00;14.00;;;;;3.52;100.00;101179.38;4904940;29;44892;-83
2021/12/03 01:14:01;;;;;;;;;14.00;14.00;;;;;3.54;100.00;101183.69;4904544;29;44774;-83
2021/12/03 01:16:29;;;;;;;;;15.00;13.67;;;;;3.58;100.00;101185.31;4903851;29;45303;-83
2021/12/03 01:18:55;;;;;;;;;14.33;8.00;;;;;3.60;100.00;101188.75;4887559;29;45525;-84
2021/12/03 01:21:21;;;;;;;;;18.00;15.67;;;;;3.61;100.00;101194.84;4906599;29;45522;-83
2021/12/03 01:23:47;;;;;;;;;17.00;11.00;;;;;3.64;100.00;101196.53;4906393;29;45424;-83
2021/12/03 01:26:13;;;;;;;;;14.67;12.67;;;;;3.65;100.00;101190.38;4889251;29;44805;-83
2021/12/03 01:28:39;;;;;;;;;16.00;13.67;;;;;3.63;100.00;101181.66;4910587;29;45348;-83
2021/12/03 01:31:05;;;;;;;;;15.00;14.00;;;;;3.66;100.00;101202.59;4907721;29;47027;-83
2021/12/03 01:33:31;;;;;;;;;14.67;14.33;;;;;3.67;100.00;101199.03;4905821;29;44682;-83
2021/12/03 01:35:57;;;;;;;;;24.67;20.67;;;;;3.69;100.00;101200.72;4905453;29;44768;-83
2021/12/03 01:38:22;;;;;;;;;22.00;19.00;;;;;3.72;100.00;101199.75;4906920;29;45404;-83
2021/12/03 01:40:48;;;;;;;;;15.67;14.00;;;;;3.74;100.00;101205.84;4906682;29;45037;-83
2021/12/03 01:43:20;;;;;;;;;13.33;12.67;;;;;3.69;100.00;101195.47;4906140;29;44798;-83
2021/12/03 01:45:47;;;;;;;;;20.00;17.67;;;;;3.66;100.00;101187.69;4888837;29;44714;-83
2021/12/03 01:48:12;;;;;;;;;15.00;15.00;;;;;3.69;100.00;101199.88;4889101;29;44842;-83
2021/12/03 01:50:41;;;;;;;;;17.33;14.33;;;;;3.63;100.00;101200.94;4905723;29;45057;-84
2021/12/03 01:53:08;;;;;;;;;18.00;15.33;;;;;3.63;100.00;101208.81;4905910;29;44875;-83
2021/12/03 01:55:35;;;;;;;;;20.33;17.33;;;;;3.59;100.00;101209.81;4905623;29;45383;-83
2021/12/03 01:58:00;;;;;;;;;17.00;14.00;;;;;3.54;100.00;101204.69;4905578;29;44725;-84
2021/12/03 02:00:37;;;;;;;;;23.33;18.00;;;;;3.53;100.00;101208.22;4905300;29;45932;-83
2021/12/03 02:03:06;;;;;;;;;15.00;14.00;;;;;3.50;100.00;101213.56;4888140;29;44802;-84
2021/12/03 02:05:31;;;;;;;;;20.67;16.00;;;;;3.52;100.00;101234.53;4906580;29;44846;-84
2021/12/03 02:07:58;;;;;;;;;16.33;12.67;;;;;3.48;100.00;101217.13;4904858;29;44976;-83
2021/12/03 02:10:25;;;;;;;;;18.67;16.33;;;;;3.48;100.00;101215.41;4903091;29;45527;-83
2021/12/03 02:12:52;;;;;;;;;15.33;10.67;;;;;3.47;100.00;101224.16;4905035;29;44860;-83
2021/12/03 02:15:18;;;;;;;;;20.33;19.00;;;;;3.45;100.00;101214.63;4907335;28;45229;-83
2021/12/03 02:17:44;;;;;;;;;18.00;15.33;;;;;3.42;100.00;101210.28;4912628;29;44866;-88
2021/12/03 02:20:11;;;;;;;;;17.00;14.00;;;;;3.40;100.00;101209.50;4917245;29;45090;-88
2021/12/03 02:22:38;;;;;;;;;13.33;13.00;;;;;3.44;100.00;101202.41;4918013;29;44709;-88
2021/12/03 02:25:07;;;;;;;;;18.33;16.33;;;;;3.42;100.00;101207.66;4911462;29;44642;-88
2021/12/03 02:30:23;;;;;;;;;17.67;14.67;;;;;3.37;100.00;101208.72;5063501;23;46718;-83
2021/12/03 02:32:50;;;;;;;;;16.67;14.67;;;;;3.40;100.00;101208.63;4905981;29;44956;-83
2021/12/03 02:35:17;;;;;;;;;24.33;22.67;;;;;3.40;100.00;101199.00;4905723;29;45274;-83
2021/12/03 02:37:43;;;;;;;;;27.33;18.33;;;;;3.35;100.00;101209.63;4905448;29;45494;-82
2021/12/03 02:40:10;;;;;;;;;14.67;14.67;;;;;3.40;100.00;101212.13;4904818;29;45196;-82
2021/12/03 02:42:36;;;;;;;;;15.67;14.00;;;;;3.40;100.00;101212.13;4902504;29;45282;-82
2021/12/03 02:45:03;;;;;;;;;23.00;15.00;;;;;3.43;100.00;101208.53;4902572;29;44728;-82
2021/12/03 02:47:28;;;;;;;;;18.33;16.67;;;;;3.44;100.00;101212.91;4904895;29;45363;-83
2021/12/03 02:49:54;;;;;;;;;25.67;15.67;;;;;3.44;100.00;101199.78;4905428;29;45208;-83
2021/12/03 02:52:19;;;;;;;;;22.67;15.67;;;;;3.45;100.00;101201.47;4906248;29;44756;-84
2021/12/03 02:54:45;;;;;;;;;18.00;16.00;;;;;3.44;100.00;101187.50;4903058;29;44798;-83
2021/12/03 02:57:12;;;;;;;;;18.33;14.67;;;;;3.46;100.00;101190.91;4904068;29;45641;-83
2021/12/03 02:59:37;;;;;;;;;20.33;16.33;;;;;3.49;100.00;101189.97;4903648;29;45406;-83
2021/12/03 03:02:03;;;;;;;;;23.67;17.33;;;;;3.48;100.00;101183.88;4903186;29;45492;-83
2021/12/03 03:04:29;;;;;;;;;12.33;12.33;;;;;3.49;100.00;101179.47;4902508;29;45317;-83
2021/12/03 03:06:54;;;;;;;;;21.33;18.00;;;;;3.52;100.00;101171.50;4902345;29;44889;-83
2021/12/03 03:09:20;;;;;;;;;15.33;14.33;;;;;3.52;100.00;101167.09;4901862;29;45425;-83
2021/12/03 03:11:46;;;;;;;;;14.00;12.00;;;;;3.52;100.00;101160.97;4902269;29;44889;-82
2021/12/03 03:14:11;;;;;;;;;20.33;13.00;;;;;3.51;100.00;101165.38;4901786;29;44948;-83
2021/12/03 03:16:37;;;;;;;;;15.33;12.00;;;;;3.53;100.00;101167.94;4901954;29;45149;-84
2021/12/03 03:19:11;;;;;;;;;21.00;16.33;;;;;3.54;100.00;101161.81;4907830;29;45246;-84
2021/12/03 03:21:37;;;;;;;;;9.67;9.67;;;;;3.55;100.00;101155.66;4889050;29;44884;-83
2021/12/03 03:24:03;;;;;;;;;1.00;1.00;;;;;3.56;100.00;101167.88;4905632;29;44656;-83
2021/12/03 03:26:29;;;;;;;;;20.00;18.33;;;;;3.50;100.00;101158.41;4891591;29;44797;-83
2021/12/03 03:28:57;;;;;;;;;19.67;18.00;;;;;3.54;100.00;101151.31;4908899;29;45426;-83
2021/12/03 03:31:22;;;;;;;;;17.67;15.33;;;;;3.53;100.00;101154.81;4910335;29;45394;-83
2021/12/03 03:33:48;;;;;;;;;22.33;17.67;;;;;3.53;100.00;101167.94;4908872;29;44714;-83
2021/12/03 03:36:13;;;;;;;;;15.33;14.00;;;;;3.48;100.00;101160.25;4904600;29;45012;-83
2021/12/03 03:38:39;;;;;;;;;11.00;10.00;;;;;3.48;100.00;101161.97;4901750;29;45302;-83
2021/12/03 03:41:05;;;;;;;;;15.00;14.00;;;;;3.43;100.00;101164.75;4903785;29;45156;-83
2021/12/03 03:43:31;;;;;;;;;15.67;12.33;;;;;3.48;100.00;101162.88;4907419;29;45418;-83
2021/12/03 03:45:56;;;;;;;;;20.33;15.33;;;;;3.47;100.00;101168.13;4908013;29;44959;-83
2021/12/03 03:48:24;;;;;;;;;15.00;13.33;;;;;3.42;100.00;101162.16;4905766;29;45411;-83
2021/12/03 03:50:50;;;;;;;;;18.00;13.33;;;;;3.44;100.00;101161.22;4903254;29;44802;-83
2021/12/03 03:53:16;;;;;;;;;14.00;14.00;;;;;3.44;100.00;101161.22;4884501;29;44757;-83
2021/12/03 03:55:41;;;;;;;;;12.67;12.00;;;;;3.46;100.00;101161.19;4901660;29;44772;-82
2021/12/03 03:58:08;;;;;;;;;18.50;13.75;;;;;3.44;100.00;101163.84;4901318;29;45422;-84
2021/12/03 04:00:39;;;;;;;;;9.25;8.50;;;;;3.42;100.00;101162.16;4902177;29;44783;-82
2021/12/03 04:03:04;;;;;;;;;13.25;13.25;;;;;3.41;100.00;101161.31;4902248;29;44808;-83
2021/12/03 04:05:30;;;;;;;;;11.50;9.25;;;;;3.35;100.00;101154.50;4901655;29;45304;-83
2021/12/03 04:07:56;;;;;;;;;13.75;12.25;;;;;3.35;100.00;101157.13;4902764;29;45204;-83
2021/12/03 04:10:22;;;;;;;;;10.67;10.67;;;;;3.31;100.00;101154.63;4904458;29;45416;-83
2021/12/03 04:12:47;;;;;;;;;15.33;13.00;;;;;3.30;100.00;101147.66;4905228;29;45551;-82
2021/12/03 04:15:13;;;;;;;;;13.67;10.33;;;;;3.27;100.00;101151.22;4905144;29;44876;-84
2021/12/03 04:17:40;;;;;;;;;15.33;13.67;;;;;3.21;100.00;101151.41;4902742;29;44919;-83
2021/12/03 04:20:09;;;;;;;;;10.67;9.00;;;;;3.18;100.00;101138.38;4909539;29;44786;-82
2021/12/03 04:22:34;;;;;;;;;19.00;14.00;;;;;3.09;100.00;101126.41;4908541;29;44785;-83
2021/12/03 04:25:00;;;;;;;;;12.00;10.33;;;;;3.15;100.00;101135.00;4905213;29;44912;-83
2021/12/03 04:27:26;;;;;;;;;9.67;7.67;;;;;3.09;100.00;101134.28;4904309;29;47078;-83
2021/12/03 04:29:51;;;;;;;;;16.00;14.00;;;;;3.09;100.00;101154.38;4902321;28;44841;-82
2021/12/03 04:32:17;;;;;;;;;12.67;12.00;;;;;3.12;100.00;101156.09;4902861;29;45180;-83
2021/12/03 04:34:44;;;;;;;;;13.33;11.33;;;;;3.06;100.00;101152.72;4904188;29;45444;-83
2021/12/03 04:37:09;;;;;;;;;11.67;11.67;;;;;3.14;100.00;101164.75;4903610;29;45479;-84
2021/12/03 04:39:35;;;;;;;;;14.33;13.00;;;;;3.12;100.00;101156.94;4905451;29;45335;-83
2021/12/03 04:42:00;;;;;;;;;17.33;10.33;;;;;3.14;100.00;101138.50;4907287;29;44663;-84
2021/12/03 04:44:26;;;;;;;;;15.33;13.67;;;;;3.15;100.00;101140.25;4906997;29;44909;-83
2021/12/03 04:46:51;;;;;;;;;9.67;8.33;;;;;3.12;100.00;101145.59;4907133;29;45009;-83
2021/12/03 04:49:16;;;;;;;;;13.00;12.00;;;;;3.14;100.00;101146.38;4906024;29;44651;-83
2021/12/03 04:51:42;;;;;;;;;14.33;12.67;;;;;3.13;100.00;101134.16;4907164;29;45349;-83
2021/12/03 04:54:07;;;;;;;;;12.00;12.00;;;;;3.12;100.00;101127.22;4905818;29;44930;-83
2021/12/03 04:56:33;;;;;;;;;12.00;9.00;;;;;3.15;100.00;101137.63;4906871;29;45632;-83
2021/12/03 04:58:58;;;;;;;;;9.00;9.00;;;;;3.14;100.00;101138.50;4907214;29;45336;-84
2021/12/03 05:01:24;;;;;;;;;12.67;10.67;;;;;3.13;100.00;101139.41;4907812;29;44850;-87
2021/12/03 05:03:49;;;;;;;;;14.00;12.00;;;;;3.13;100.00;101150.78;4913043;29;45260;-88
2021/12/03 05:06:17;;;;;;;;;15.00;12.00;;;;;3.12;100.00;101135.09;4911057;29;45343;-87
2021/12/03 05:08:42;;;;;;;;;13.00;10.67;;;;;3.12;100.00;101140.34;4916630;29;44795;-87
2021/12/03 05:11:09;;;;;;;;;9.00;7.00;;;;;3.14;100.00;101143.75;4918132;29;44834;-87
2021/12/03 05:13:36;;;;;;;;;12.00;9.67;;;;;3.10;100.00;101129.88;4917235;29;44902;-87
2021/12/03 05:16:04;;;;;;;;;12.33;10.67;;;;;3.08;100.00;101108.91;4913431;29;45074;-88
2021/12/03 05:18:30;;;;;;;;;15.67;11.67;;;;;3.12;100.00;101106.22;4909704;29;45237;-88
2021/12/03 05:21:01;;;;;;;;;13.67;12.00;;;;;3.14;100.00;101102.63;4912385;29;45386;-88
2021/12/03 05:23:29;;;;;;;;;10.67;10.33;;;;;3.16;100.00;101100.81;4911181;29;45553;-88
2021/12/03 05:25:55;;;;;;;;;13.00;12.00;;;;;3.16;100.00;101103.44;4912033;29;45114;-86
2021/12/03 05:28:21;;;;;;;;;7.33;7.33;;;;;3.19;100.00;101105.09;4895137;29;44822;-88
2021/12/03 05:30:47;;;;;;;;;8.67;7.33;;;;;3.22;100.00;101102.41;4913442;29;44759;-87
2021/12/03 05:33:13;;;;;;;;;12.00;10.00;;;;;3.21;100.00;101100.69;4913276;29;45478;-87
2021/12/03 05:35:38;;;;;;;;;12.00;10.33;;;;;3.25;100.00;101110.19;4909765;29;46945;-88
2021/12/03 05:38:04;;;;;;;;;12.00;12.00;;;;;3.26;100.00;101104.88;4892878;29;44671;-87
2021/12/03 05:40:30;;;;;;;;;15.67;15.67;;;;;3.24;100.00;101098.84;4893231;29;44713;-87
2021/12/03 05:42:56;;;;;;;;;13.00;13.00;;;;;3.26;100.00;101093.53;4892356;29;44761;-87
2021/12/03 05:45:27;;;;;;;;;15.33;13.67;;;;;3.29;100.00;101096.91;4895107;29;44920;-88
2021/12/03 05:47:54;;;;;;;;;19.00;15.67;;;;;3.32;100.00;101099.44;4914201;29;44873;-89
2021/12/03 05:50:20;;;;;;;;;14.00;12.67;;;;;3.33;100.00;101098.50;4896538;29;45252;-89
2021/12/03 05:52:47;;;;;;;;;18.33;16.67;;;;;3.34;100.00;101095.00;4909115;29;44877;-83
2021/12/03 05:55:14;;;;;;;;;18.67;13.33;;;;;3.34;100.00;101097.63;4905721;29;44989;-83
2021/12/03 05:57:41;;;;;;;;;15.00;13.33;;;;;3.35;100.00;101093.25;4903719;29;45442;-82
2021/12/03 06:00:22;;;;;;;;;21.33;15.67;;;;;3.33;100.00;101082.75;4906231;29;44772;-91
2021/12/03 06:11:29;;;;;;;;;18.00;16.50;;;;;3.32;100.00;101046.91;4956652;23;44881;-93
2021/12/03 06:13:56;;;;;;;;;16.00;12.33;;;;;3.31;100.00;101034.72;4926901;28;44925;-90
2021/12/03 06:16:21;;;;;;;;;14.00;12.00;;;;;3.39;100.00;101059.88;4918557;28;45247;-91
2021/12/03 06:18:47;;;;;;;;;19.00;16.67;;;;;3.37;100.00;101059.03;4889856;29;44750;-92
2021/12/03 06:21:37;;;;;;;;;16.33;13.00;;;;;3.33;100.00;101060.91;4900156;29;44902;-92
2021/12/03 06:26:39;;;;;;;;;9.00;7.33;;;;;3.31;100.00;101046.97;4929380;23;45099;-92
2021/12/03 06:29:04;;;;;;;;;13.33;13.00;;;;;3.46;100.00;101075.38;4928605;28;44749;-92
2021/12/03 06:31:34;;;;;;;;;10.00;9.00;;;;;3.45;100.00;101072.81;4894999;29;44724;-90
2021/12/03 06:34:11;;;;;;;;;11.33;9.67;;;;;3.47;100.00;101074.44;4910136;28;44887;-93
2021/12/03 06:36:38;;;;;;;;;15.33;10.67;;;;;3.48;100.00;101078.81;4920434;29;45123;-92
2021/12/03 06:39:05;;;;;;;;;15.00;13.33;;;;;3.45;100.00;101064.91;4921723;29;44833;-92
2021/12/03 06:41:39;;;;;;;;;10.00;10.00;;;;;3.45;100.00;101075.44;4904263;29;44710;-92
2021/12/03 06:44:05;;;;;;;;;19.67;12.00;;;;;3.45;100.00;101070.19;4905074;29;44782;-91
2021/12/03 06:46:32;;;;;;;;;15.00;13.00;;;;;3.44;100.00;101071.09;4900153;29;45064;-88
2021/12/03 06:48:58;;;;;;;;;9.33;9.00;;;;;3.37;100.00;101077.44;4913022;29;44757;-87
2021/12/03 06:51:24;;;;;;;;;15.67;10.67;;;;;3.38;100.00;101076.50;4891881;29;44583;-89
2021/12/03 06:56:32;;;;;;;;;17.33;13.00;;;;;3.35;100.00;101061.72;4929734;28;45170;-91
2021/12/03 06:58:58;;;;;;;;;10.67;10.00;;;;;3.43;100.00;101077.22;4935803;28;44594;-91
2021/12/03 07:01:23;;;;;;;;;13.00;12.00;;;;;3.37;100.00;101062.53;4939354;28;44679;-93
2021/12/03 07:03:48;;;;;;;;;20.00;13.00;;;;;3.41;100.00;101069.41;4946173;28;44924;-94
2021/12/03 07:08:52;;;;;;;;;14.00;14.00;;;;;3.37;100.00;101054.66;4957535;23;44835;-91
2021/12/03 07:11:19;;;;;;;;;13.00;12.33;;;;;3.44;100.00;101058.81;4917876;28;44792;-92
2021/12/03 07:13:45;;;;;;;;;18.67;13.67;;;;;3.50;100.00;101068.25;4902682;29;44908;-91
2021/12/03 07:16:14;;;;;;;;;13.00;12.00;;;;;3.42;100.00;101047.47;4919909;29;45220;-92
2021/12/03 07:18:43;;;;;;;;;11.67;11.67;;;;;3.46;100.00;101059.59;4883682;29;44761;-91
2021/12/03 07:21:10;;;;;;;;;9.00;8.00;;;;;3.51;100.00;101055.06;4900422;29;44746;-91
2021/12/03 07:23:37;;;;;;;;;14.00;13.67;;;;;3.54;100.00;101049.72;4908835;29;44868;-92
2021/12/03 07:26:03;;;;;;;;;13.00;9.00;;;;;3.64;100.00;101054.69;4954349;23;46054;-92
2021/12/03 07:28:32;;;;;;;;;12.33;10.00;;;;;3.66;100.00;101043.19;4889719;29;44753;-92
2021/12/03 07:31:19;;;;;;;;;11.67;11.67;;;;;3.61;100.00;101034.59;4911058;28;44735;-92
2021/12/03 07:33:46;;;;;;;;;14.33;13.33;;;;;3.57;100.00;101036.47;4926290;28;44768;-91
2021/12/03 07:39:07;;;;;;;;;9.00;9.00;;;;;3.60;100.00;101038.16;5052043;23;44940;-92
2021/12/03 07:44:34;;;;;;;;;8.33;8.00;;;;;3.67;100.00;101044.03;5118411;23;45873;-92
2021/12/03 07:47:02;;;;;;;;;9.67;9.67;;;;;3.73;100.00;101054.38;4919757;29;45034;-88
2021/12/03 07:49:28;;;;;;;;;10.00;9.00;;;;;3.71;100.00;101058.81;4914543;28;44615;-89
2021/12/03 07:51:54;;;;;;;;;9.00;9.00;;;;;3.74;100.00;101041.19;4906346;29;44654;-88
2021/12/03 07:54:21;;;;;;;;;9.33;7.00;;;;;3.77;100.00;101053.34;4904308;29;44883;-87
2021/12/03 07:59:28;;;;;;;;;9.33;8.33;;;;;3.89;100.00;101055.56;5046079;23;45125;-88
2021/12/03 08:01:55;;;;;;;;;8.67;8.67;;;;;3.92;100.00;101051.97;4909731;29;44658;-88
2021/12/03 08:04:20;;;;;;;;;13.75;8.25;;;;;3.88;100.00;101042.47;4919540;29;45297;-84
2021/12/03 08:06:51;;;;;;;;;9.00;7.67;;;;;3.97;100.00;101050.06;4915763;29;45364;-88
2021/12/03 08:09:19;;;;;;;;;8.33;6.67;;;;;4.00;100.00;101045.53;4927573;28;44681;-88
2021/12/03 08:11:45;;;;;;;;;10.25;8.75;;;;;4.01;100.00;101042.00;4927368;28;44733;-87
2021/12/03 08:14:11;;;;;;;;;10.33;8.00;;;;;4.06;100.00;101042.69;4906962;29;44809;-87
2021/12/03 08:16:36;;;;;;;;;12.00;7.75;;;;;4.09;100.00;101044.34;4914609;29;45582;-86
2021/12/03 08:19:01;;;;;;;;;10.75;8.75;;;;;4.10;100.00;101046.06;4893861;29;44850;-87
2021/12/03 08:21:27;;;;;;;;;6.50;6.50;;;;;4.20;100.00;101041.34;4913571;29;44707;-88
2021/12/03 08:23:52;;;;;;;;;8.50;7.75;;;;;4.17;100.00;101039.69;4909396;29;45264;-87
2021/12/03 08:26:18;;;;;;;;;9.75;8.25;;;;;4.27;100.00;101056.84;4909477;29;45172;-86
2021/12/03 08:28:44;;;;;;;;;8.00;8.00;;;;;4.34;100.00;101049.59;4903050;29;45195;-86
2021/12/03 08:31:14;;;;;;;;;12.00;8.67;;;;;4.35;100.00;101041.66;4903031;29;44706;-86
2021/12/03 08:33:41;;;;;;;;;8.00;8.00;;;;;4.42;100.00;101049.31;4904857;29;45336;-86
2021/12/03 08:36:07;;;;;;;;;10.00;9.00;;;;;4.51;100.00;101046.34;4908838;29;45492;-86
2021/12/03 08:38:32;;;;;;;;;7.00;7.00;;;;;4.52;100.00;101034.91;4909446;29;44706;-86
2021/12/03 08:40:57;;;;;;;;;5.25;2.00;;;;;4.61;100.00;101038.06;4888563;29;44776;-87
2021/12/03 08:43:23;;;;;;;;;10.00;8.00;;;;;4.64;100.00;101039.69;4890430;29;45238;-86
2021/12/03 08:45:53;;;;;;;;;7.00;5.50;;;;;4.66;100.00;101047.56;4891020;29;45831;-88
2021/12/03 08:48:19;;;;;;;;;8.67;8.00;;;;;4.57;100.00;101046.13;4907277;29;44783;-87
2021/12/03 08:51:10;;;;;;;;;9.67;7.33;;;;;4.54;100.00;101031.28;4896866;29;44730;-87
2021/12/03 08:56:20;;;;;;;;;7.25;4.75;;;;;4.62;100.00;101055.56;4903524;29;44965;-86
2021/12/03 08:58:45;;;;;;;;;8.00;7.50;;;;;4.58;100.00;101047.84;4885347;29;44851;-85
2021/12/03 09:01:13;;;;;;;;;8.67;5.00;;;;;4.66;100.00;101056.31;4884792;29;45037;-85
2021/12/03 09:03:39;;;;;;;;;7.50;6.00;;;;;4.69;100.00;101050.06;4903823;29;45419;-87
2021/12/03 09:06:05;;;;;;;;;8.00;7.33;;;;;4.71;100.00;101049.09;4885916;29;45272;-86
2021/12/03 09:08:30;;;;;;;;;11.00;7.67;;;;;4.72;100.00;101042.91;4902076;29;45293;-86
2021/12/03 09:10:56;;;;;;;;;8.00;5.50;;;;;4.78;100.00;101050.56;4902628;29;45721;-87
2021/12/03 09:13:21;;;;;;;;;11.75;9.00;;;;;4.77;100.00;101042.75;4903146;29;44948;-86
2021/12/03 09:16:01;;;;;;;;;8.50;8.00;;;;;4.76;100.00;101044.53;4904177;29;45463;-87
2021/12/03 09:21:04;;;;;;;;;10.50;9.75;;;;;4.81;100.00;101039.94;4906714;29;44761;-87
2021/12/03 09:23:50;;;;;;;;;8.75;4.75;;;;;4.81;100.00;101026.78;4908617;29;44760;-87
2021/12/03 09:26:17;;;;;;;;;14.25;7.75;;;;;4.80;100.00;101022.44;4897487;29;45339;-87
2021/12/03 09:28:50;;;;;;;;;9.00;4.75;;;;;4.84;100.00;101024.03;4891493;29;45395;-88
2021/12/03 09:31:17;;;;;;;;;7.50;5.75;;;;;4.76;100.00;101017.34;4890923;29;44861;-87
2021/12/03 09:33:45;;;;;;;;;18.75;10.25;;;;;4.82;100.00;101015.31;4890846;29;44817;-86
2021/12/03 09:36:11;;;;;;;;;8.00;8.00;;;;;4.82;100.00;101009.22;4893691;29;47406;-87
2021/12/03 09:38:37;;;;;;;;;3.00;2.75;;;;;4.86;100.00;101006.41;4914995;29;44716;-86
2021/12/03 09:41:15;;;;;;;;;8.75;7.75;;;;;4.82;100.00;101006.56;4910221;29;44921;-87
2021/12/03 09:43:45;;;;;;;;;10.00;9.00;;;;;4.88;100.00;101001.94;4889097;29;44849;-87
2021/12/03 09:51:04;;;;;;;;;3.25;2.25;;;;;4.90;100.00;101001.88;4908900;29;44775;-87
2021/12/03 09:54:10;;;;;;;;;10.00;9.50;;;;;4.86;100.00;100984.47;4891548;29;44803;-87
2021/12/03 09:56:33;;;;;;;;;4.00;4.00;;;;;4.85;100.00;100981.00;4910195;29;44964;-87
2021/12/03 10:01:54;;;;;;;;;5.25;5.25;;;;;4.76;100.00;100980.50;4908247;29;45268;-87
2021/12/03 10:17:43;;;;;;;;;13.50;7.75;;;;;4.64;100.00;100995.84;4908312;29;44948;-86
2021/12/03 10:20:25;;;;;;;;;9.00;9.00;;;;;4.59;100.00;100978.50;4909833;29;44782;-85
2021/12/03 10:34:06;;;;;;;;;8.50;6.75;;;;;4.33;100.00;100950.56;4909406;29;45258;-84
2021/12/03 10:36:53;;;;;;;;;10.50;7.75;;;;;4.27;100.00;100945.56;4907531;29;44837;-86
2021/12/03 10:58:28;;;;;;;;;13.00;7.00;;;;;4.16;100.00;100924.03;4905023;29;44844;-86
2021/12/03 11:07:20;;;;;;;;;4.00;2.33;;;;;3.93;100.00;100904.75;4904977;29;45161;-86
2021/12/03 11:12:47;;;;;;;;;9.33;9.33;;;;;3.78;100.00;100902.69;4905507;29;44907;-87
2021/12/03 13:15:31;;;;;;;;;5.50;5.25;;;;;3.66;100.00;100701.69;4846313;29;45309;-85
2021/12/03 14:00:08;;;;;;;;;9.00;9.00;;;;;4.00;100.00;100608.38;4922336;29;44899;-90
2021/12/03 14:42:05;;;;;;;;;5.25;5.25;;;;;4.25;100.00;100530.16;4846077;29;45310;-85
2021/12/03 14:55:51;;;;;;;;;3.00;3.00;;;;;4.34;100.00;100508.69;4846861;29;44785;-84
2021/12/03 14:58:22;;;;;;;;;5.25;5.25;;;;;4.36;100.00;100506.88;4830758;29;44816;-84
2021/12/03 15:01:07;;;;;;;;;9.00;7.50;;;;;4.37;100.00;100505.09;4860478;29;44785;-90
2021/12/03 15:06:26;;;;;;;;;7.25;6.75;;;;;4.34;100.00;100481.56;4894771;29;44772;-86
2021/12/03 15:08:59;;;;;;;;;11.00;8.00;;;;;4.40;100.00;100481.31;4888230;29;44772;-85
2021/12/03 15:32:07;;;;;;;;;7.50;7.50;;;;;4.44;100.00;100476.72;4904790;29;44746;-88
2021/12/03 15:34:57;;;;;;;;;6.75;4.75;;;;;4.44;100.00;100469.69;4904732;29;45310;-88
2021/12/03 15:40:18;;;;;;;;;7.00;4.75;;;;;4.47;100.00;100463.44;4907268;29;44750;-88
2021/12/03 15:56:44;;;;;;;;;8.33;7.00;;;;;4.58;100.00;100451.50;4906821;29;45318;-89
2021/12/03 16:04:39;;;;;;;;;8.67;8.67;;;;;4.62;100.00;100446.94;4918585;29;44697;-89
2021/12/03 16:07:40;;;;;;;;;7.50;7.00;;;;;4.60;100.00;100428.63;4903950;29;46737;-88
2021/12/03 16:10:20;;;;;;;;;4.75;4.75;;;;;4.65;100.00;100420.50;4909409;29;44784;-85
2021/12/03 16:15:51;;;;;;;;;6.25;6.25;;;;;4.69;100.00;100405.41;4902653;29;45301;-85
2021/12/03 16:24:30;;;;;;;;;4.50;4.00;;;;;4.76;100.00;100389.25;4829719;29;44864;-83
2021/12/03 16:43:46;;;;;;;;;13.00;11.33;;;;;4.86;100.00;100350.19;4815642;29;45304;-84
2021/12/03 16:51:54;;;;;;;;;7.75;5.00;;;;;4.85;100.00;100333.56;4810354;29;45538;-84
2021/12/03 16:55:03;;;;;;;;;10.00;8.50;;;;;4.82;100.00;100327.59;4811082;29;45360;-84
2021/12/03 16:57:10;;;;;;;;;8.75;8.00;;;;;4.84;100.00;100323.97;4810372;29;44729;-84
2021/12/03 16:59:39;;;;;;;;;11.00;7.75;;;;;4.86;100.00;100314.19;4797450;29;45408;-84
2021/12/03 17:02:08;;;;;;;;;4.75;4.75;;;;;4.88;100.00;100312.34;4887262;29;45089;-85
2021/12/03 17:10:24;;;;;;;;;9.00;7.75;;;;;4.88;100.00;100312.34;4927693;28;44736;-84
2021/12/03 17:12:57;;;;;;;;;9.25;8.00;;;;;4.86;100.00;100308.94;4927883;28;45358;-90
2021/12/03 17:15:53;;;;;;;;;8.25;8.25;;;;;4.87;100.00;100301.88;4911407;28;44706;-90
2021/12/03 17:49:54;;;;;;;;;11.00;7.75;;;;;5.07;100.00;100258.75;4904041;29;45156;-84
2021/12/03 17:55:29;;;;;;;;;11.25;11.25;;;;;5.11;100.00;100249.75;4903490;29;45029;-86
2021/12/03 18:00:32;;;;;;;;;11.75;10.50;;;;;5.16;100.00;100242.47;4905159;28;44802;-85
2021/12/03 18:03:06;;;;;;;;;25.00;19.67;;;;;5.20;100.00;100240.53;4905226;29;44782;-85
2021/12/03 18:05:48;;;;;;;;;12.25;11.00;;;;;5.20;100.00;100227.38;4903536;29;46322;-85
2021/12/03 18:08:31;;;;;;;;;15.75;12.00;;;;;5.23;100.00;100211.44;4903645;29;45303;-85
2021/12/03 18:17:02;;;;;;;;;14.00;13.00;;;;;5.19;100.00;100200.19;4903556;29;45812;-84
2021/12/03 18:52:07;;;;;;;;;9.25;9.25;;;;;5.45;100.00;100138.19;4843188;29;45643;-85
2021/12/03 18:57:06;;;;;;;;;12.00;10.75;;;;;5.52;100.00;100128.19;4844259;29;44811;-85
2021/12/03 18:59:37;;;;;;;;;13.25;9.00;;;;;5.55;100.00;100114.81;4844426;29;45293;-85
2021/12/03 19:02:06;;;;;;;;;15.67;15.00;;;;;5.59;100.00;100113.72;4845713;29;44955;-85
2021/12/03 19:04:38;;;;;;;;;13.50;12.00;;;;;5.59;100.00;100113.72;4852772;29;45476;-86
2021/12/03 19:07:19;;;;;;;;;12.00;10.25;;;;;5.59;100.00;100105.81;4862656;29;45569;-85